createdAt,value
2022-11-22T00:00:29.606Z,9.30
2022-11-22T00:02:56.315Z,10.70
2022-11-22T00:05:23.146Z,7.97
2022-11-22T00:07:50.358Z,9.23
2022-11-22T00:10:17.153Z,9.57
2022-11-22T00:12:44.354Z,7.97
2022-11-22T00:15:12.471Z,7.60
2022-11-22T00:17:39.826Z,9.90
2022-11-22T00:20:12.028Z,13.63
2022-11-22T00:22:44.503Z,9.90
2022-11-22T00:25:12.539Z,9.70
2022-11-22T00:27:41.631Z,14.10
2022-11-22T00:30:10.861Z,10.65
2022-11-22T00:32:37.559Z,9.55
2022-11-22T00:35:04.880Z,8.48
2022-11-22T00:37:31.814Z,8.48
2022-11-22T00:39:58.589Z,8.10
2022-11-22T00:42:25.272Z,7.97
2022-11-22T00:44:51.841Z,11.35
2022-11-22T00:47:18.372Z,10.07
2022-11-22T00:49:45.063Z,9.75
2022-11-22T00:52:11.942Z,12.55
2022-11-22T00:54:38.456Z,6.60
2022-11-22T00:57:07.489Z,9.10
2022-11-22T00:59:34.056Z,7.60
2022-11-22T01:02:00.678Z,10.05
2022-11-22T01:04:27.285Z,11.48
2022-11-22T01:06:56.276Z,10.38
2022-11-22T01:09:24.108Z,8.05
2022-11-22T01:11:53.561Z,7.35
2022-11-22T01:14:20.725Z,10.73
2022-11-22T01:16:47.976Z,6.60
2022-11-22T01:19:14.826Z,7.57
2022-11-22T01:21:43.595Z,9.57
2022-11-22T01:24:10.284Z,7.10
2022-11-22T01:26:39.110Z,8.93
2022-11-22T01:29:10.139Z,12.18
2022-11-22T01:31:36.713Z,11.90
2022-11-22T01:34:05.317Z,11.20
2022-11-22T01:36:34.338Z,4.78
2022-11-22T01:39:00.855Z,9.13
2022-11-22T01:41:27.591Z,7.30
2022-11-22T01:43:54.188Z,7.55
2022-11-22T01:46:38.479Z,11.32
2022-11-22T01:49:16.619Z,10.95
2022-11-22T01:51:47.908Z,9.82
2022-11-22T01:54:22.237Z,8.07
2022-11-22T01:56:59.479Z,9.30
2022-11-22T01:59:34.847Z,9.70
2022-11-22T02:02:02.480Z,9.20
2022-11-22T02:04:31.441Z,9.02
2022-11-22T02:07:14.299Z,9.40
2022-11-22T02:09:47.139Z,9.10
2022-11-22T02:12:18.453Z,7.30
2022-11-22T02:14:45.806Z,9.70
2022-11-22T02:17:14.576Z,12.38
2022-11-22T02:19:46.776Z,11.48
2022-11-22T02:22:22.249Z,15.85
2022-11-22T02:24:57.776Z,10.68
2022-11-22T02:27:24.731Z,11.30
2022-11-22T02:29:51.419Z,8.88
2022-11-22T02:32:18.079Z,13.02
2022-11-22T02:34:49.980Z,14.90
2022-11-22T02:37:24.187Z,10.63
2022-11-22T02:39:58.824Z,10.15
2022-11-22T02:42:27.988Z,15.32
2022-11-22T02:44:54.617Z,12.15
2022-11-22T02:47:21.227Z,8.55
2022-11-22T02:49:48.007Z,9.50
2022-11-22T02:52:18.800Z,9.90
2022-11-22T02:54:46.366Z,12.48
2022-11-22T02:57:13.412Z,11.82
2022-11-22T02:59:42.171Z,13.82
2022-11-22T03:02:08.726Z,10.68
2022-11-22T03:04:38.250Z,14.20
2022-11-22T03:07:09.731Z,14.48
2022-11-22T03:09:36.387Z,12.07
2022-11-22T03:12:03.234Z,9.23
2022-11-22T03:14:29.835Z,13.35
2022-11-22T03:16:56.483Z,15.40
2022-11-22T03:19:23.095Z,9.93
2022-11-22T03:21:50.133Z,11.00
2022-11-22T03:24:17.246Z,11.10
2022-11-22T03:26:48.071Z,13.07
2022-11-22T03:29:14.924Z,11.70
2022-11-22T03:31:41.497Z,18.95
2022-11-22T03:34:10.394Z,11.80
2022-11-22T03:36:36.937Z,12.27
2022-11-22T03:39:03.920Z,9.95
2022-11-22T03:41:30.494Z,11.85
2022-11-22T03:43:59.253Z,10.45
2022-11-22T03:46:25.885Z,11.00
2022-11-22T03:48:52.419Z,12.50
2022-11-22T03:51:19.092Z,10.80
2022-11-22T03:53:45.654Z,14.13
2022-11-22T03:56:12.334Z,15.05
2022-11-22T03:58:38.917Z,11.18
2022-11-22T04:01:05.556Z,15.02
2022-11-22T04:03:32.163Z,8.77
2022-11-22T04:06:01.003Z,10.75
2022-11-22T04:08:27.959Z,8.18
2022-11-22T04:10:57.284Z,11.05
2022-11-22T04:13:43.827Z,13.68
2022-11-22T04:16:10.411Z,10.85
2022-11-22T04:18:36.975Z,9.25
2022-11-22T04:21:22.186Z,11.20
2022-11-22T04:24:08.673Z,12.75
2022-11-22T04:26:35.400Z,11.10
2022-11-22T04:29:11.829Z,10.88
2022-11-22T04:31:59.484Z,8.82
2022-11-22T04:34:26.129Z,7.43
2022-11-22T04:36:52.864Z,14.20
2022-11-22T04:39:19.563Z,14.15
2022-11-22T04:41:46.174Z,12.30
2022-11-22T04:44:31.719Z,17.48
2022-11-22T04:46:58.247Z,12.48
2022-11-22T04:49:24.932Z,8.77
2022-11-22T04:52:09.858Z,12.75
2022-11-22T04:54:36.526Z,7.95
2022-11-22T04:57:05.312Z,12.25
2022-11-22T04:59:32.088Z,10.00
2022-11-22T05:01:58.929Z,9.32
2022-11-22T05:04:25.486Z,10.35
2022-11-22T05:06:52.223Z,14.63
2022-11-22T05:09:21.266Z,9.10
2022-11-22T05:11:47.810Z,13.87
2022-11-22T05:14:16.599Z,13.73
2022-11-22T05:16:45.560Z,8.90
2022-11-22T05:19:12.255Z,12.48
2022-11-22T05:21:38.949Z,9.35
2022-11-22T05:24:05.918Z,9.93
2022-11-22T05:26:35.202Z,11.10
2022-11-22T05:29:10.621Z,13.73
2022-11-22T05:31:39.701Z,12.60
2022-11-22T05:34:08.753Z,12.77
2022-11-22T05:36:35.724Z,12.47
2022-11-22T05:39:02.895Z,14.97
2022-11-22T05:41:29.463Z,11.13
2022-11-22T05:43:58.806Z,15.07
2022-11-22T05:46:30.344Z,16.08
2022-11-22T05:48:58.455Z,11.68
2022-11-22T05:51:33.925Z,8.20
2022-11-22T05:54:03.719Z,13.07
2022-11-22T05:56:30.362Z,18.98
2022-11-22T05:58:57.081Z,9.73
2022-11-22T06:01:24.991Z,18.60
2022-11-22T06:03:54.405Z,8.25
2022-11-22T06:06:21.033Z,11.52
2022-11-22T06:08:49.174Z,9.45
2022-11-22T06:11:24.113Z,11.05
2022-11-22T06:13:56.472Z,11.30
2022-11-22T06:16:23.438Z,15.07
2022-11-22T06:18:50.583Z,8.07
2022-11-22T06:21:25.227Z,7.97
2022-11-22T06:23:55.401Z,9.57
2022-11-22T06:26:26.022Z,12.37
2022-11-22T06:28:54.186Z,12.00
2022-11-22T06:31:25.523Z,10.67
2022-11-22T06:33:54.519Z,14.67
2022-11-22T06:36:27.341Z,10.70
2022-11-22T06:38:53.835Z,10.38
2022-11-22T06:41:33.900Z,12.23
2022-11-22T06:44:07.858Z,9.18
2022-11-22T06:46:37.548Z,8.15
2022-11-22T06:49:11.202Z,13.07
2022-11-22T06:51:40.008Z,8.82
2022-11-22T06:54:11.352Z,13.85
2022-11-22T06:56:41.587Z,10.55
2022-11-22T06:59:11.445Z,13.17
2022-11-22T07:01:38.764Z,11.68
2022-11-22T07:04:06.252Z,10.95
2022-11-22T07:06:35.834Z,20.13
2022-11-22T07:09:07.509Z,10.70
2022-11-22T07:11:35.105Z,8.65
2022-11-22T07:14:10.787Z,12.70
2022-11-22T07:16:38.898Z,9.45
2022-11-22T07:19:08.027Z,7.13
2022-11-22T07:21:36.635Z,16.63
2022-11-22T07:24:04.632Z,12.65
2022-11-22T07:26:31.239Z,11.38
2022-11-22T07:28:57.779Z,7.55
2022-11-22T07:31:24.556Z,14.90
2022-11-22T07:33:51.128Z,10.20
2022-11-22T07:36:20.622Z,11.75
2022-11-22T07:38:48.582Z,7.30
2022-11-22T07:41:16.552Z,12.25
2022-11-22T07:43:43.601Z,8.77
2022-11-22T07:46:24.828Z,10.02
2022-11-22T07:48:53.931Z,11.32
2022-11-22T07:51:25.214Z,8.63
2022-11-22T07:53:51.888Z,11.75
2022-11-22T07:56:18.459Z,8.60
2022-11-22T07:58:45.065Z,7.85
2022-11-22T08:01:18.678Z,13.15
2022-11-22T08:03:45.802Z,9.88
2022-11-22T08:06:13.816Z,8.30
2022-11-22T08:11:39.228Z,7.60
2022-11-22T08:14:05.788Z,8.90
2022-11-22T08:16:32.331Z,7.60
2022-11-22T08:19:03.719Z,11.95
2022-11-22T08:21:30.438Z,15.25
2022-11-22T08:24:00.188Z,7.22
2022-11-22T08:26:27.347Z,11.57
2022-11-22T08:28:56.420Z,8.77
2022-11-22T08:31:22.927Z,6.97
2022-11-22T08:33:53.287Z,10.40
2022-11-22T08:36:24.685Z,11.75
2022-11-22T08:38:51.199Z,14.32
2022-11-22T08:41:17.758Z,11.57
2022-11-22T08:43:44.708Z,7.82
2022-11-22T08:46:11.760Z,13.05
2022-11-22T08:48:40.872Z,9.88
2022-11-22T08:51:09.559Z,8.10
2022-11-22T08:53:41.707Z,6.38
2022-11-22T08:56:12.945Z,10.57
2022-11-22T08:58:40.170Z,12.18
2022-11-22T09:01:13.747Z,9.93
2022-11-22T09:03:41.662Z,6.38
2022-11-22T09:09:22.161Z,9.07
2022-11-22T09:11:44.585Z,8.70
2022-11-22T09:14:11.156Z,8.38
2022-11-22T09:16:37.713Z,7.45
2022-11-22T09:19:04.268Z,6.30
2022-11-22T09:21:30.836Z,7.78
2022-11-22T09:23:59.628Z,10.75
2022-11-22T09:26:26.307Z,5.20
2022-11-22T09:28:56.663Z,6.63
2022-11-22T09:31:26.498Z,4.22
2022-11-22T09:33:53.112Z,8.77
2022-11-22T09:36:22.332Z,9.10
2022-11-22T09:38:49.262Z,10.57
2022-11-22T09:41:15.731Z,8.00
2022-11-22T09:44:00.745Z,10.63
2022-11-22T09:46:42.367Z,10.25
2022-11-22T09:49:29.685Z,8.85
2022-11-22T09:52:02.231Z,6.90
2022-11-22T09:54:37.994Z,7.93
2022-11-22T09:57:09.069Z,29.65
2022-11-22T09:59:41.613Z,9.90
2022-11-22T10:02:18.992Z,11.25
2022-11-22T10:04:56.056Z,10.68
2022-11-22T10:07:35.432Z,6.85
2022-11-22T10:10:14.672Z,8.98
2022-11-22T10:12:52.894Z,7.35
2022-11-22T10:15:44.370Z,6.85
2022-11-22T10:18:26.316Z,7.18
2022-11-22T10:20:53.386Z,9.07
2022-11-22T10:23:25.945Z,8.07
2022-11-22T10:26:07.596Z,5.22
2022-11-22T10:29:14.125Z,5.07
2022-11-22T10:31:50.152Z,8.57
2022-11-22T10:34:30.672Z,8.38
2022-11-22T10:37:05.345Z,8.73
2022-11-22T10:39:48.597Z,7.00
2022-11-22T10:42:33.911Z,4.80
2022-11-22T10:45:06.388Z,6.30
2022-11-22T10:48:02.996Z,5.60
2022-11-22T10:50:49.917Z,6.70
2022-11-22T10:53:28.453Z,7.97
2022-11-22T10:56:23.140Z,6.07
2022-11-22T10:59:08.435Z,5.82
2022-11-22T11:01:59.597Z,19.50
2022-11-22T11:04:35.453Z,21.25
2022-11-22T11:07:12.076Z,13.20
2022-11-22T11:10:10.331Z,16.75
2022-11-22T11:12:46.987Z,7.57
2022-11-22T11:15:24.766Z,5.80
2022-11-22T11:18:00.666Z,6.75
2022-11-22T11:20:38.757Z,6.28
2022-11-22T11:23:20.712Z,5.35
2022-11-22T11:25:48.877Z,5.28
2022-11-22T11:28:23.739Z,6.18
2022-11-22T11:31:09.744Z,3.53
2022-11-22T11:33:39.111Z,3.83
2022-11-22T11:36:24.618Z,5.32
2022-11-22T11:38:55.662Z,7.00
2022-11-22T11:41:26.044Z,4.13
2022-11-22T11:44:01.463Z,4.93
2022-11-22T11:46:30.321Z,4.38
2022-11-22T11:49:18.838Z,3.08
2022-11-22T11:51:47.384Z,2.85
2022-11-22T11:54:22.766Z,4.10
2022-11-22T11:56:58.053Z,4.18
2022-11-22T11:59:39.312Z,5.80
2022-11-22T12:02:21.198Z,1.77
2022-11-22T12:04:50.723Z,4.82
2022-11-22T12:07:24.433Z,1.73
2022-11-22T12:09:56.328Z,3.67
2022-11-22T12:12:51.124Z,2.00
2022-11-22T12:15:53.514Z,28.48
2022-11-22T12:18:36.450Z,8.90
2022-11-22T12:21:25.057Z,5.47
2022-11-22T12:27:05.644Z,2.88
2022-11-22T12:29:49.467Z,6.45
2022-11-22T12:32:23.990Z,3.83
2022-11-22T12:34:53.960Z,3.58
2022-11-22T12:37:34.150Z,3.47
2022-11-22T12:40:05.638Z,2.85
2022-11-22T12:42:39.589Z,2.25
2022-11-22T12:45:13.549Z,2.33
2022-11-22T12:47:44.697Z,3.53
2022-11-22T12:48:23.891Z,2.13
2022-11-22T12:50:14.165Z,1.48
2022-11-22T12:52:59.185Z,0.65
2022-11-22T12:55:30.532Z,3.58
2022-11-22T12:58:10.916Z,1.33
2022-11-22T13:00:48.044Z,2.50
2022-11-22T13:03:30.325Z,0.60
2022-11-22T13:05:59.344Z,3.38
2022-11-22T13:08:38.487Z,2.72
2022-11-22T13:11:09.363Z,2.05
2022-11-22T13:14:02.709Z,2.72
2022-11-22T13:16:29.542Z,0.60
2022-11-22T13:19:00.636Z,1.88
2022-11-22T13:21:49.995Z,0.52
2022-11-22T13:24:54.753Z,1.10
2022-11-22T13:27:44.416Z,1.10
2022-11-22T13:30:22.101Z,2.22
2022-11-22T13:32:57.987Z,2.95
2022-11-22T13:35:33.985Z,5.10
2022-11-22T13:38:04.434Z,2.92
2022-11-22T13:40:35.171Z,0.68
2022-11-22T13:43:21.212Z,0.65
2022-11-22T13:45:51.579Z,0.60
2022-11-22T13:48:40.038Z,3.53
2022-11-22T13:51:09.560Z,0.90
2022-11-22T13:53:44.045Z,1.60
2022-11-22T13:56:16.566Z,0.38
2022-11-22T13:58:50.776Z,0.80
2022-11-22T14:01:36.040Z,0.98
2022-11-22T14:04:19.697Z,0.63
2022-11-22T14:06:56.853Z,2.92
2022-11-22T14:09:56.586Z,3.15
2022-11-22T14:12:37.632Z,2.22
2022-11-22T14:15:19.519Z,1.75
2022-11-22T14:18:13.026Z,2.58
2022-11-22T14:21:02.489Z,1.42
2022-11-22T14:23:47.308Z,2.60
2022-11-22T14:26:21.670Z,1.05
2022-11-22T14:28:57.982Z,1.73
2022-11-22T14:31:28.878Z,0.40
2022-11-22T14:34:14.328Z,1.10
2022-11-22T14:36:41.339Z,4.43
2022-11-22T14:39:53.360Z,3.63
2022-11-22T14:42:35.756Z,1.92
2022-11-22T14:45:11.382Z,1.08
2022-11-22T14:47:52.413Z,2.05
2022-11-22T14:50:24.682Z,1.02
2022-11-22T14:52:52.893Z,2.78
2022-11-22T14:55:30.893Z,1.20
2022-11-22T14:58:23.565Z,1.23
2022-11-22T15:01:14.929Z,1.95
2022-11-22T15:09:14.158Z,0.75
2022-11-22T15:09:23.879Z,1.58
2022-11-22T15:09:56.421Z,1.63
2022-11-22T15:12:58.359Z,2.83
2022-11-22T15:59:31.267Z,3.17
2022-11-22T16:02:01.696Z,1.35
2022-11-22T16:04:36.353Z,1.40
2022-11-22T16:07:06.798Z,1.55
2022-11-22T16:09:38.317Z,1.83
2022-11-22T16:12:25.349Z,2.05
2022-11-22T16:14:52.946Z,2.85
2022-11-22T16:17:25.308Z,2.45
2022-11-22T16:19:53.302Z,3.47
2022-11-22T16:22:31.091Z,4.53
2022-11-22T16:25:31.211Z,5.10
2022-11-22T16:27:58.005Z,4.25
2022-11-22T16:30:24.544Z,3.53
2022-11-22T16:32:53.843Z,4.13
2022-11-22T16:35:29.515Z,6.10
2022-11-22T16:37:56.511Z,2.85
2022-11-22T16:40:23.106Z,6.45
2022-11-22T16:42:49.694Z,2.08
2022-11-22T16:45:19.816Z,3.60
2022-11-22T16:47:54.612Z,4.47
2022-11-22T16:50:33.058Z,1.80
2022-11-22T16:53:02.978Z,3.75
2022-11-22T16:55:29.650Z,3.22
2022-11-22T16:57:56.482Z,5.07
2022-11-22T17:01:15.873Z,2.20
2022-11-22T17:03:44.353Z,2.85
2022-11-22T17:06:21.004Z,3.22
2022-11-22T17:08:49.728Z,2.85
2022-11-22T17:11:19.508Z,2.58
2022-11-22T17:13:46.400Z,5.75
2022-11-22T17:16:17.740Z,3.92
2022-11-22T17:18:45.869Z,2.67
2022-11-22T17:21:29.394Z,3.05
2022-11-22T17:24:12.182Z,3.95
2022-11-22T17:26:38.736Z,2.90
2022-11-22T17:29:06.617Z,6.72
2022-11-22T17:31:35.790Z,4.50
2022-11-22T17:34:02.359Z,3.45
2022-11-22T17:36:31.622Z,4.43
2022-11-22T17:39:00.286Z,4.80
2022-11-22T17:41:27.649Z,6.88
2022-11-22T17:43:56.619Z,5.68
2022-11-22T17:46:23.519Z,4.95
2022-11-22T17:48:51.670Z,2.60
2022-11-22T17:51:18.275Z,4.13
2022-11-22T17:53:44.916Z,4.07
2022-11-22T17:56:11.829Z,3.78
2022-11-22T17:58:41.055Z,3.08
2022-11-22T18:01:08.888Z,3.78
2022-11-22T18:03:38.562Z,5.72
2022-11-22T18:06:05.709Z,2.42
2022-11-22T18:08:32.790Z,3.97
2022-11-22T18:11:01.279Z,3.83
2022-11-22T18:13:31.276Z,2.90
2022-11-22T18:16:03.154Z,3.08
2022-11-22T18:21:21.239Z,5.70
2022-11-22T18:23:48.044Z,7.47
2022-11-22T18:29:38.585Z,7.45
2022-11-22T18:31:52.231Z,3.35
2022-11-22T18:34:20.360Z,8.15
2022-11-22T18:36:55.461Z,7.95
2022-11-22T18:39:26.858Z,6.63
2022-11-22T18:41:55.642Z,7.88
2022-11-22T18:44:22.171Z,10.50
2022-11-22T18:46:50.873Z,5.07
2022-11-22T18:49:17.455Z,5.20
2022-11-22T18:51:44.170Z,5.60
2022-11-22T18:54:10.780Z,6.63
2022-11-22T18:56:40.659Z,5.88
2022-11-22T18:59:10.511Z,4.80
2022-11-22T19:01:37.365Z,9.63
2022-11-22T19:04:09.288Z,6.38
2022-11-22T19:06:38.355Z,6.25
2022-11-22T19:09:04.948Z,9.73
2022-11-22T19:11:34.375Z,6.53
2022-11-22T19:14:01.710Z,8.70
2022-11-22T19:16:30.249Z,6.30
2022-11-22T19:18:58.482Z,8.25
2022-11-22T19:21:26.974Z,8.13
2022-11-22T19:23:54.153Z,8.90
2022-11-22T19:26:23.239Z,7.80
2022-11-22T19:28:55.928Z,9.25
2022-11-22T19:31:27.690Z,8.13
2022-11-22T19:33:58.244Z,8.13
2022-11-22T19:36:32.771Z,8.93
2022-11-22T19:39:00.632Z,11.05
2022-11-22T19:41:27.337Z,10.52
2022-11-22T19:43:56.278Z,9.80
2022-11-22T19:46:23.410Z,6.13
2022-11-22T19:48:53.872Z,10.13
2022-11-22T19:51:22.237Z,7.85
2022-11-22T19:53:53.386Z,10.63
2022-11-22T19:56:21.120Z,14.40
2022-11-22T19:58:53.615Z,7.47
2022-11-22T20:01:21.880Z,9.30
2022-11-22T20:03:53.501Z,10.63
2022-11-22T20:06:20.935Z,13.70
2022-11-22T20:08:47.616Z,10.75
2022-11-22T20:11:16.741Z,11.98
2022-11-22T20:13:46.457Z,10.98
2022-11-22T20:16:26.899Z,12.15
2022-11-22T20:19:09.602Z,6.05
2022-11-22T20:21:37.522Z,14.38
2022-11-22T20:24:05.503Z,13.18
2022-11-22T20:26:33.059Z,10.07
2022-11-22T20:29:04.960Z,12.68
2022-11-22T20:31:32.867Z,8.60
2022-11-22T20:34:00.498Z,14.57
2022-11-22T20:36:31.183Z,12.52
2022-11-22T20:39:09.852Z,11.50
2022-11-22T20:41:38.560Z,12.93
2022-11-22T20:44:05.724Z,11.07
2022-11-22T20:46:36.775Z,11.05
2022-11-22T20:49:03.391Z,8.00
2022-11-22T20:51:32.258Z,16.95
2022-11-22T20:54:01.088Z,6.50
2022-11-22T20:56:27.694Z,11.63
2022-11-22T20:58:54.467Z,13.93
2022-11-22T21:01:26.635Z,15.45
2022-11-22T21:03:57.061Z,14.07
2022-11-22T21:06:26.785Z,10.90
2022-11-22T21:08:54.289Z,13.88
2022-11-22T21:11:27.725Z,16.63
2022-11-22T21:13:55.689Z,9.35
2022-11-22T21:16:24.998Z,15.90
2022-11-22T21:18:53.995Z,12.82
2022-11-22T21:21:24.922Z,14.65
2022-11-22T21:23:56.344Z,13.07
2022-11-22T21:26:24.293Z,12.95
2022-11-22T21:28:52.306Z,17.27
2022-11-22T21:31:20.243Z,12.55
2022-11-22T21:33:47.884Z,9.65
2022-11-22T21:36:14.873Z,9.25
2022-11-22T21:38:43.807Z,10.80
2022-11-22T21:44:09.284Z,15.90
2022-11-22T21:46:35.953Z,6.35
2022-11-22T21:49:02.523Z,15.45
2022-11-22T21:51:32.243Z,9.43
2022-11-22T21:53:59.891Z,11.15
2022-11-22T21:56:27.208Z,15.70
2022-11-22T21:58:54.379Z,13.70
2022-11-22T22:01:21.204Z,13.18
2022-11-22T22:03:47.747Z,11.25
2022-11-22T22:06:14.419Z,11.68
2022-11-22T22:08:41.255Z,11.23
2022-11-22T22:11:08.374Z,9.55
2022-11-22T22:13:35.150Z,9.10
2022-11-22T22:16:04.185Z,14.20
2022-11-22T22:18:38.080Z,10.57
2022-11-22T22:21:07.263Z,10.40
2022-11-22T22:23:35.459Z,9.20
2022-11-22T22:26:03.926Z,9.32
2022-11-22T22:28:33.157Z,8.80
2022-11-22T22:31:10.249Z,11.20
2022-11-22T22:33:38.623Z,9.85
2022-11-22T22:36:06.658Z,8.50
2022-11-22T22:38:34.387Z,6.43
2022-11-22T22:41:03.692Z,8.57
2022-11-22T22:43:35.420Z,11.95
2022-11-22T22:46:24.771Z,9.77
2022-11-22T22:48:52.195Z,7.57
2022-11-22T22:51:26.246Z,10.82
2022-11-22T22:53:57.956Z,6.93
2022-11-22T22:56:28.195Z,8.70
2022-11-22T22:58:55.818Z,8.75
2022-11-22T23:01:26.860Z,7.28
2022-11-22T23:03:58.804Z,8.45
2022-11-22T23:06:27.559Z,14.23
2022-11-22T23:08:57.250Z,10.57
2022-11-22T23:11:45.640Z,11.57
2022-11-22T23:14:14.623Z,8.38
2022-11-22T23:16:41.213Z,9.00
2022-11-22T23:19:08.078Z,8.38
2022-11-22T23:21:35.295Z,11.60
2022-11-22T23:24:02.750Z,11.85
2022-11-22T23:26:29.432Z,8.82
2022-11-22T23:28:56.037Z,9.65
2022-11-22T23:31:22.632Z,11.38
2022-11-22T23:33:49.207Z,11.25
2022-11-22T23:36:18.208Z,8.52
2022-11-22T23:38:45.411Z,8.57
2022-11-22T23:41:13.999Z,9.63
2022-11-22T23:43:41.645Z,8.25
2022-11-22T23:46:16.769Z,9.48
2022-11-22T23:48:55.714Z,12.85
2022-11-22T23:51:23.566Z,14.98
2022-11-22T23:53:55.053Z,16.35
2022-11-22T23:56:22.236Z,9.70
2022-11-22T23:58:49.385Z,8.40
